Hiawatha, KS

10:31 AM CDT 2016 iraila ren 26 an (GMT -0500)
Hiawatha | | Change Station

Elev 1109 ft 39.86 °N, 95.54 °W | Updated 7 minutes ago

Clear
Oskarbia
71.2 °F
Feels Like 77 °F
N
0.0
Haizea Aldagarria Haizea from HHM

Gaur
High -- | Low -- °F
--% Chance of Precip.
Yesterday
High -- | Low -- °F
Precip. -- in
Presioa 30.26 in
Ikusgaitasuna 10.0 Miliak
Clouds Oskarbia
Beroaren maila 77 °F
Ihintzaren maila 48 °F
Afoinua 43%
Rainfall 0.00 in
Snow Depth Not available.
7:14 AM 7:11 PM
Waning Crescent, 18% visible
METAR KFNB 261453Z AUTO 29005KT 10SM CLR 15/08 A3026 RMK AO2 SLP247 T01500078 53005
Presioa 30.26 in
Ikusgaitasuna 10.0 Miliak
Clouds Oskarbia
Beroaren maila 77 °F
Ihintzaren maila 48 °F
Afoinua 43%
Rainfall 0.00 in
Snow Depth Not available.
7:14 AM 7:11 PM
Waning Crescent, 18% visible
METAR KFNB 261453Z AUTO 29005KT 10SM CLR 15/08 A3026 RMK AO2 SLP247 T01500078 53005

10-Day Weather Forecast

Almanac

Astronomy

Sep. 26, 2016 Rise Set
Actual Time
Civil Twilight
Nautical Twilight
Astronomical Twilight
Moon
Length Of Visible Light
Length of Day
Tomorrow will be .
, % of the Moon is Illuminated

Today's Extremes

State Highs State Lows

Community

WunderPhotos

Upload Photos

1,941,898 photos uploaded!

WunderBlog® & News

Nearby

Air Quality

  Air Quality AQ Index Pollutant
Not available.

Snow Depth

Station Depth Elevation

Earthquake Activity

City Distance Mag. Time & Date
Minimum magnitude displayed is 2.5.

Coastal Water Temperatures

Lekua Tenperatura

Stations

Nearby Weather Stations

Station Location Temp Izozki haizeak Ihintzaren maila Afoinua Haizea Precip. Elev Eguneratuta Type
                   

Watches & Warnings

There are currently no watches in effect.